Time;durP1;ratioP1;P1;durP2;ratioP2;P2;SDS_P1;SDS_P2;PMS_P1;PMS_P2;Temp;Humidity;BMP_temperature;BMP_pressure;BME280_temperature;BME280_humidity;BME280_pressure;Samples;Min_cycle;Max_cycle;Signal;HPM_P1;HPM_P2
2021/09/07 00:00:38;;;;;;;5.15;2.42;;;23.70;81.70;;;;;;4933262;29;20059;-92
2021/09/07 00:03:04;;;;;;;5.63;2.65;;;23.70;82.00;;;;;;4933405;29;20040;-92
2021/09/07 00:05:29;;;;;;;2.75;2.40;;;23.70;81.40;;;;;;4948105;29;20064;-92
2021/09/07 00:07:55;;;;;;;5.03;2.60;;;23.70;82.20;;;;;;4931990;29;20016;-92
2021/09/07 00:10:21;;;;;;;8.48;2.88;;;23.70;81.70;;;;;;4933437;29;20023;-92
2021/09/07 00:12:47;;;;;;;9.35;2.95;;;23.60;82.40;;;;;;4933709;29;20381;-92
2021/09/07 00:15:14;;;;;;;4.30;2.63;;;23.60;82.40;;;;;;4933340;29;20063;-93
2021/09/07 00:17:40;;;;;;;3.25;2.65;;;23.60;82.20;;;;;;4933376;29;20024;-92
2021/09/07 00:20:07;;;;;;;2.85;2.45;;;23.60;81.80;;;;;;4932999;29;20051;-92
2021/09/07 00:22:34;;;;;;;4.78;2.60;;;23.60;82.20;;;;;;4928835;29;20023;-92
2021/09/07 00:25:00;;;;;;;3.83;2.92;;;23.60;83.00;;;;;;4929948;29;20038;-92
2021/09/07 00:27:25;;;;;;;3.63;2.72;;;23.60;82.70;;;;;;4933735;29;20028;-92
2021/09/07 00:29:51;;;;;;;3.58;2.75;;;23.60;82.40;;;;;;4933098;29;20106;-92
2021/09/07 00:32:17;;;;;;;3.30;2.50;;;23.60;82.10;;;;;;4933234;29;20027;-93
2021/09/07 00:34:43;;;;;;;4.68;2.40;;;23.60;82.30;;;;;;4931912;29;20027;-91
2021/09/07 00:37:08;;;;;;;6.30;3.00;;;23.60;82.10;;;;;;4932985;29;20019;-93
2021/09/07 00:39:34;;;;;;;5.00;2.72;;;23.50;82.80;;;;;;4933155;29;20198;-92
2021/09/07 00:42:00;;;;;;;3.50;2.80;;;23.50;82.60;;;;;;4931601;29;20024;-92
2021/09/07 00:44:25;;;;;;;3.80;2.78;;;23.50;82.50;;;;;;4931516;29;20148;-92
2021/09/07 00:46:57;;;;;;;3.85;2.33;;;23.40;82.80;;;;;;4932972;29;20130;-92
2021/09/07 00:49:24;;;;;;;4.38;2.70;;;23.40;83.30;;;;;;4933008;29;20038;-92
2021/09/07 00:51:51;;;;;;;10.75;3.05;;;23.30;83.20;;;;;;4931720;29;20396;-93
2021/09/07 00:54:20;;;;;;;7.60;3.10;;;23.40;83.40;;;;;;4931489;29;20054;-92
2021/09/07 00:56:47;;;;;;;4.13;2.63;;;23.30;83.80;;;;;;4944225;28;20024;-92
2021/09/07 00:59:14;;;;;;;5.75;2.88;;;23.20;83.80;;;;;;4931748;29;20103;-93
2021/09/07 01:01:40;;;;;;;5.78;2.78;;;23.30;84.30;;;;;;4931453;29;20058;-92
2021/09/07 01:04:06;;;;;;;5.72;2.70;;;23.20;83.80;;;;;;4932769;29;20032;-92
2021/09/07 01:06:32;;;;;;;5.78;2.60;;;23.20;84.60;;;;;;4931920;29;20219;-92
2021/09/07 01:08:58;;;;;;;3.20;2.47;;;23.10;84.60;;;;;;4945405;28;20525;-92
2021/09/07 01:11:24;;;;;;;3.72;2.58;;;23.10;84.40;;;;;;4931516;29;20294;-92
2021/09/07 01:13:50;;;;;;;3.80;2.70;;;23.00;85.80;;;;;;4932787;29;20042;-92
2021/09/07 01:16:19;;;;;;;5.55;2.72;;;23.00;85.40;;;;;;4933296;29;20020;-93
2021/09/07 01:18:44;;;;;;;11.43;2.92;;;22.90;85.20;;;;;;4936791;29;20035;-93
2021/09/07 01:21:12;;;;;;;3.33;2.50;;;22.90;85.60;;;;;;4935219;29;20028;-93
2021/09/07 01:23:41;;;;;;;5.72;2.85;;;22.90;86.40;;;;;;4935348;29;20028;-92
2021/09/07 01:26:08;;;;;;;7.40;2.60;;;22.80;86.20;;;;;;4935010;29;20072;-92
2021/09/07 01:28:35;;;;;;;4.97;2.47;;;22.80;86.40;;;;;;4935173;29;20048;-93
2021/09/07 01:31:03;;;;;;;4.18;2.53;;;22.80;87.00;;;;;;4947938;28;20107;-92
2021/09/07 01:33:29;;;;;;;4.55;3.00;;;22.80;87.20;;;;;;4931866;29;20454;-93
2021/09/07 01:35:58;;;;;;;5.32;2.70;;;22.70;87.00;;;;;;4929434;29;20059;-92
2021/09/07 01:38:25;;;;;;;2.88;2.40;;;22.70;87.60;;;;;;4935971;29;20036;-92
2021/09/07 01:40:52;;;;;;;6.00;2.78;;;22.70;87.50;;;;;;4934876;29;20031;-93
2021/09/07 01:43:19;;;;;;;3.97;2.72;;;22.70;87.90;;;;;;4936098;29;20119;-93
2021/09/07 01:45:46;;;;;;;4.28;2.85;;;22.70;87.70;;;;;;4921445;29;20044;-93
2021/09/07 01:48:16;;;;;;;6.35;2.78;;;22.60;87.70;;;;;;4936033;29;20028;-92
2021/09/07 01:50:43;;;;;;;9.73;2.80;;;22.70;87.70;;;;;;4934689;29;20024;-92
2021/09/07 01:53:09;;;;;;;5.70;2.80;;;22.60;88.20;;;;;;4947354;28;20348;-93
2021/09/07 01:55:35;;;;;;;6.30;2.92;;;22.60;88.50;;;;;;4932849;29;20033;-92
2021/09/07 01:58:00;;;;;;;3.47;2.50;;;22.60;88.00;;;;;;4934396;29;20024;-93
2021/09/07 02:00:26;;;;;;;5.45;2.60;;;22.50;88.10;;;;;;4947866;28;20465;-92
2021/09/07 02:02:52;;;;;;;3.22;2.38;;;22.50;88.70;;;;;;4934315;29;20055;-92
2021/09/07 02:05:18;;;;;;;5.20;2.55;;;22.50;88.80;;;;;;4947213;28;20574;-92
2021/09/07 02:07:44;;;;;;;4.70;2.70;;;22.40;88.80;;;;;;4933511;29;20019;-93
2021/09/07 02:10:10;;;;;;;4.00;2.63;;;22.40;89.70;;;;;;4947325;28;20390;-92
2021/09/07 02:12:36;;;;;;;2.80;2.50;;;22.50;89.40;;;;;;4932972;29;20248;-93
2021/09/07 02:15:02;;;;;;;7.03;2.90;;;22.40;89.30;;;;;;4931245;29;20204;-92
2021/09/07 02:17:29;;;;;;;2.83;2.20;;;22.40;89.80;;;;;;4932360;28;20028;-92
2021/09/07 02:19:55;;;;;;;3.78;2.75;;;22.40;90.00;;;;;;4934330;29;20083;-92
2021/09/07 02:22:21;;;;;;;4.38;2.65;;;22.40;89.90;;;;;;4935534;29;20024;-93
2021/09/07 02:24:47;;;;;;;5.93;2.65;;;22.40;90.30;;;;;;4935237;29;20048;-93
2021/09/07 02:27:13;;;;;;;6.40;2.85;;;22.30;90.20;;;;;;4932860;29;20020;-92
2021/09/07 02:29:40;;;;;;;4.38;2.60;;;22.30;90.30;;;;;;4946605;28;20035;-92
2021/09/07 02:32:09;;;;;;;5.97;3.13;;;22.30;90.50;;;;;;4925209;29;20496;-92
2021/09/07 02:34:35;;;;;;;4.28;3.10;;;22.30;90.40;;;;;;4933835;29;20042;-93
2021/09/07 02:37:01;;;;;;;5.68;3.13;;;22.30;90.60;;;;;;4934111;29;20099;-92
2021/09/07 02:39:27;;;;;;;4.63;2.92;;;22.30;90.80;;;;;;4935244;29;20032;-92
2021/09/07 02:41:53;;;;;;;4.20;3.50;;;22.20;90.80;;;;;;4934953;29;20024;-92
2021/09/07 02:44:18;;;;;;;6.80;3.45;;;22.20;90.80;;;;;;4934896;29;20032;-93
2021/09/07 02:46:45;;;;;;;6.07;3.70;;;22.20;91.10;;;;;;4934889;29;20484;-93
2021/09/07 02:49:11;;;;;;;6.55;3.63;;;22.10;91.10;;;;;;4933789;29;20023;-92
2021/09/07 02:51:37;;;;;;;6.00;3.80;;;22.10;91.30;;;;;;4935024;29;20032;-93
2021/09/07 02:54:03;;;;;;;6.90;3.90;;;22.10;91.80;;;;;;4934451;29;20019;-92
2021/09/07 02:56:29;;;;;;;5.07;3.67;;;22.10;91.70;;;;;;4930704;29;20087;-93
2021/09/07 02:58:55;;;;;;;6.72;4.50;;;22.10;91.70;;;;;;4927789;29;20055;-93
2021/09/07 03:01:21;;;;;;;5.57;3.70;;;21.90;91.90;;;;;;4938508;29;20099;-93
2021/09/07 03:03:46;;;;;;;6.15;4.28;;;21.90;92.20;;;;;;4933387;29;20048;-92
2021/09/07 03:06:12;;;;;;;8.45;3.80;;;21.90;92.10;;;;;;4933088;29;20123;-93
2021/09/07 03:08:38;;;;;;;6.97;3.55;;;21.90;92.30;;;;;;4946263;28;20020;-93
2021/09/07 03:11:04;;;;;;;4.80;3.80;;;21.80;92.40;;;;;;4931641;29;20381;-93
2021/09/07 03:13:29;;;;;;;6.60;3.20;;;21.90;92.70;;;;;;4934541;29;20613;-93
2021/09/07 03:15:55;;;;;;;5.78;3.83;;;21.90;92.50;;;;;;4934417;29;20028;-93
2021/09/07 03:18:21;;;;;;;4.97;3.55;;;21.80;92.70;;;;;;4934328;29;20019;-93
2021/09/07 03:20:47;;;;;;;5.10;3.42;;;21.80;92.80;;;;;;4933146;29;20323;-93
2021/09/07 03:23:12;;;;;;;6.70;3.40;;;21.80;93.40;;;;;;4934470;29;20030;-93
2021/09/07 03:25:38;;;;;;;4.90;2.90;;;21.90;93.20;;;;;;4934094;29;20035;-93
2021/09/07 03:28:04;;;;;;;4.47;2.88;;;21.90;93.20;;;;;;4932694;29;20016;-93
2021/09/07 03:30:30;;;;;;;4.57;2.70;;;21.90;93.00;;;;;;4945743;28;20032;-93
2021/09/07 03:32:55;;;;;;;5.88;2.75;;;21.80;93.20;;;;;;4930623;29;20024;-93
2021/09/07 03:35:21;;;;;;;4.10;2.50;;;21.80;93.40;;;;;;4934165;29;20050;-93
2021/09/07 03:37:47;;;;;;;5.00;2.85;;;21.70;93.90;;;;;;4932892;29;20016;-93
2021/09/07 03:40:13;;;;;;;5.95;2.95;;;21.70;93.80;;;;;;4933934;29;20460;-93
2021/09/07 03:42:40;;;;;;;3.83;2.67;;;21.70;94.10;;;;;;4929533;29;20079;-93
2021/09/07 03:45:11;;;;;;;3.95;2.67;;;21.70;94.00;;;;;;4932188;29;20036;-92
2021/09/07 03:47:37;;;;;;;4.57;2.70;;;21.70;93.90;;;;;;4932741;29;20032;-93
2021/09/07 03:50:03;;;;;;;3.67;3.05;;;21.70;94.10;;;;;;4945345;28;20437;-93
2021/09/07 03:52:29;;;;;;;5.20;3.38;;;21.60;94.20;;;;;;4929184;29;20025;-93
2021/09/07 03:54:56;;;;;;;4.78;3.20;;;21.60;94.30;;;;;;4913663;29;20028;-93
2021/09/07 03:57:22;;;;;;;4.97;3.88;;;21.60;94.50;;;;;;4942729;29;20024;-93
2021/09/07 03:59:47;;;;;;;4.68;3.60;;;21.50;94.60;;;;;;4938401;29;20066;-93
2021/09/07 04:02:13;;;;;;;6.07;4.05;;;21.50;94.70;;;;;;4930510;29;20483;-93
2021/09/07 04:04:39;;;;;;;5.80;4.30;;;21.40;95.30;;;;;;4932099;29;20039;-93
2021/09/07 04:07:05;;;;;;;4.68;3.97;;;21.40;95.30;;;;;;4933501;29;20128;-92
2021/09/07 04:09:31;;;;;;;5.60;3.53;;;21.50;95.00;;;;;;4932473;29;20459;-93
2021/09/07 04:11:56;;;;;;;6.55;3.95;;;21.40;95.20;;;;;;4945365;28;20043;-92
2021/09/07 04:14:22;;;;;;;9.35;4.03;;;21.40;95.50;;;;;;4930949;29;20102;-92
2021/09/07 04:16:48;;;;;;;5.45;3.58;;;21.40;95.60;;;;;;4933411;29;20023;-93
2021/09/07 04:19:14;;;;;;;8.52;3.83;;;21.40;95.60;;;;;;4932021;29;20035;-93
2021/09/07 04:21:40;;;;;;;4.20;3.38;;;21.30;95.60;;;;;;4948041;29;20120;-93
2021/09/07 04:24:06;;;;;;;5.57;3.50;;;21.20;95.80;;;;;;4932124;29;20568;-93
2021/09/07 04:26:32;;;;;;;6.00;3.55;;;21.30;96.10;;;;;;4933335;29;20114;-93
2021/09/07 04:28:59;;;;;;;6.32;2.95;;;21.20;96.00;;;;;;4933365;29;20277;-92
2021/09/07 04:31:25;;;;;;;6.60;3.25;;;21.20;96.30;;;;;;4933220;29;20032;-93
2021/09/07 04:33:50;;;;;;;6.45;2.85;;;21.20;96.50;;;;;;4931968;29;20563;-93
2021/09/07 04:36:16;;;;;;;4.28;3.20;;;21.10;96.60;;;;;;4946483;28;20032;-93
2021/09/07 04:38:42;;;;;;;6.85;3.10;;;21.10;96.90;;;;;;4933219;29;20103;-93
2021/09/07 04:41:08;;;;;;;3.88;3.00;;;21.10;97.20;;;;;;4931725;29;20070;-93
2021/09/07 04:43:33;;;;;;;4.88;3.10;;;21.10;97.30;;;;;;4946402;28;20680;-93
2021/09/07 04:45:59;;;;;;;5.57;3.20;;;21.10;97.20;;;;;;4931811;29;20032;-92
2021/09/07 04:48:25;;;;;;;5.68;3.20;;;21.10;97.50;;;;;;4933454;29;20028;-93
2021/09/07 04:50:51;;;;;;;3.75;3.00;;;21.00;97.60;;;;;;4931174;29;20034;-93
2021/09/07 04:53:16;;;;;;;4.07;3.20;;;21.00;98.00;;;;;;4933110;29;20162;-93
2021/09/07 04:55:42;;;;;;;5.65;3.45;;;20.90;98.10;;;;;;4932804;29;20031;-93
2021/09/07 04:58:08;;;;;;;4.75;3.13;;;21.00;98.40;;;;;;4932998;29;20492;-93
2021/09/07 05:00:34;;;;;;;3.50;2.97;;;21.10;98.40;;;;;;4931644;29;20028;-92
2021/09/07 05:02:59;;;;;;;4.22;3.35;;;21.10;98.40;;;;;;4932844;29;20043;-92
2021/09/07 05:05:25;;;;;;;5.72;3.60;;;21.10;98.70;;;;;;4932898;29;20031;-92
2021/09/07 05:07:51;;;;;;;4.85;3.38;;;21.10;98.80;;;;;;4932046;29;20469;-93
2021/09/07 05:10:17;;;;;;;5.63;3.20;;;21.10;98.50;;;;;;4933132;29;20035;-93
2021/09/07 05:12:43;;;;;;;5.45;3.03;;;21.10;98.70;;;;;;4918081;29;20385;-92
2021/09/07 05:15:09;;;;;;;4.82;3.25;;;21.10;98.70;;;;;;4944191;28;20028;-93
2021/09/07 05:17:35;;;;;;;6.25;3.28;;;21.10;99.10;;;;;;4927596;29;20045;-93
2021/09/07 05:20:01;;;;;;;5.50;3.05;;;21.10;99.30;;;;;;4931320;29;20028;-93
2021/09/07 05:22:27;;;;;;;3.97;3.25;;;21.10;99.30;;;;;;4944230;28;20070;-93
2021/09/07 05:24:53;;;;;;;5.15;3.20;;;21.10;99.50;;;;;;4932561;29;20051;-93
2021/09/07 05:27:19;;;;;;;6.13;3.72;;;21.10;99.40;;;;;;4932797;29;20027;-93
2021/09/07 05:29:45;;;;;;;5.07;3.25;;;21.10;99.60;;;;;;4936885;29;20296;-96
2021/09/07 05:32:11;;;;;;;4.70;3.42;;;21.00;99.90;;;;;;4935430;29;20024;-96
2021/09/07 05:34:37;;;;;;;6.05;3.47;;;21.10;99.90;;;;;;4948193;28;20074;-95
2021/09/07 05:37:03;;;;;;;5.22;3.40;;;21.20;99.60;;;;;;4950866;29;20047;-95
2021/09/07 05:39:29;;;;;;;5.88;3.78;;;21.10;99.80;;;;;;4933603;29;20108;-95
2021/09/07 05:41:55;;;;;;;4.70;3.40;;;21.10;99.90;;;;;;4934231;29;20098;-95
2021/09/07 05:44:22;;;;;;;4.78;3.60;;;21.10;99.90;;;;;;4931268;29;20046;-96
2021/09/07 05:46:48;;;;;;;4.15;3.42;;;21.10;99.90;;;;;;4932772;29;20047;-96
2021/09/07 05:49:14;;;;;;;6.07;3.60;;;21.10;99.90;;;;;;4928289;29;20492;-94
2021/09/07 05:51:41;;;;;;;5.57;3.50;;;21.10;99.90;;;;;;4945710;28;20025;-95
2021/09/07 05:54:07;;;;;;;5.15;3.60;;;21.10;99.90;;;;;;4931006;29;20041;-94
2021/09/07 05:56:34;;;;;;;3.78;3.08;;;21.10;99.90;;;;;;4947636;28;20028;-95
2021/09/07 05:58:59;;;;;;;5.25;3.70;;;21.20;99.90;;;;;;4932341;29;20039;-94
2021/09/07 06:01:25;;;;;;;3.90;3.30;;;21.20;99.90;;;;;;4948983;28;20027;-95
2021/09/07 06:03:51;;;;;;;5.35;3.30;;;21.20;99.90;;;;;;4935581;29;20511;-95
2021/09/07 06:06:17;;;;;;;7.20;3.22;;;21.30;99.90;;;;;;4937339;29;20032;-94
2021/09/07 06:08:43;;;;;;;7.75;3.70;;;21.30;99.90;;;;;;4941857;29;20547;-94
2021/09/07 06:11:09;;;;;;;4.70;3.90;;;21.30;99.90;;;;;;4934575;29;20023;-95
2021/09/07 06:13:35;;;;;;;4.20;3.28;;;21.20;99.90;;;;;;4935355;29;20047;-93
2021/09/07 06:16:01;;;;;;;9.88;3.83;;;21.30;99.90;;;;;;4934650;29;20028;-93
2021/09/07 06:18:27;;;;;;;6.00;3.55;;;21.30;99.90;;;;;;4934272;29;20030;-92
2021/09/07 06:20:54;;;;;;;5.68;3.90;;;21.40;99.90;;;;;;4948622;28;20032;-93
2021/09/07 06:23:20;;;;;;;5.88;3.45;;;21.40;99.90;;;;;;4933822;29;20496;-93
2021/09/07 06:25:46;;;;;;;7.10;4.10;;;21.40;99.90;;;;;;4932493;29;20316;-92
2021/09/07 06:28:12;;;;;;;8.38;3.60;;;21.40;99.90;;;;;;4932317;29;20027;-92
2021/09/07 06:30:37;;;;;;;6.97;3.60;;;21.50;99.90;;;;;;4943663;28;20304;-93
2021/09/07 06:33:03;;;;;;;5.80;3.40;;;21.60;99.90;;;;;;4935194;28;20020;-93
2021/09/07 06:35:29;;;;;;;3.75;3.35;;;21.70;99.90;;;;;;4932821;29;20103;-93
2021/09/07 06:37:55;;;;;;;6.50;3.42;;;21.80;99.90;;;;;;4932525;29;20078;-92
2021/09/07 06:40:21;;;;;;;4.28;3.58;;;21.80;99.90;;;;;;4948675;28;20170;-92
2021/09/07 06:42:49;;;;;;;27.63;4.13;;;21.90;99.90;;;;;;4949796;28;20024;-93
2021/09/07 06:45:15;;;;;;;8.52;3.90;;;21.90;99.90;;;;;;4933343;29;20500;-93
2021/09/07 06:47:41;;;;;;;5.65;3.60;;;21.90;99.90;;;;;;4933876;29;20028;-93
2021/09/07 06:50:07;;;;;;;8.70;4.38;;;22.00;99.90;;;;;;4946657;28;20039;-93
2021/09/07 06:52:33;;;;;;;4.85;3.72;;;22.10;99.90;;;;;;4920624;29;20028;-94
2021/09/07 06:54:59;;;;;;;7.25;3.90;;;22.20;99.90;;;;;;4946691;28;20028;-92
2021/09/07 06:57:27;;;;;;;9.82;4.20;;;22.20;99.90;;;;;;4931661;29;20028;-93
2021/09/07 06:59:54;;;;;;;8.68;3.78;;;22.30;99.90;;;;;;4946836;28;20032;-93
2021/09/07 07:02:21;;;;;;;6.30;3.50;;;22.30;99.90;;;;;;4930060;29;20047;-94
2021/09/07 07:04:47;;;;;;;6.13;3.60;;;22.40;99.90;;;;;;4933302;29;20046;-92
2021/09/07 07:07:13;;;;;;;6.85;3.85;;;22.50;99.90;;;;;;4934416;29;20115;-93
2021/09/07 07:09:38;;;;;;;8.18;4.00;;;22.70;99.80;;;;;;4933504;29;20082;-92
2021/09/07 07:12:05;;;;;;;6.55;4.38;;;22.80;99.90;;;;;;4946178;28;20028;-92
2021/09/07 07:14:31;;;;;;;3.97;3.63;;;22.90;99.70;;;;;;4931600;29;20377;-94
2021/09/07 07:16:56;;;;;;;6.82;3.65;;;23.00;99.60;;;;;;4934659;29;20075;-93
2021/09/07 07:19:22;;;;;;;6.63;4.30;;;23.10;99.50;;;;;;4933023;29;20039;-93
2021/09/07 07:21:48;;;;;;;10.15;4.57;;;23.20;99.60;;;;;;4934384;29;20122;-92
2021/09/07 07:24:16;;;;;;;8.25;4.38;;;23.20;99.30;;;;;;4933090;29;20655;-94
2021/09/07 07:26:44;;;;;;;7.63;4.03;;;23.30;99.60;;;;;;4933044;29;20063;-92
2021/09/07 07:29:12;;;;;;;9.73;3.90;;;23.30;99.60;;;;;;4934065;29;20020;-93
2021/09/07 07:31:41;;;;;;;8.70;4.75;;;23.30;99.60;;;;;;4949123;29;20396;-92
2021/09/07 07:34:06;;;;;;;5.72;4.50;;;23.30;99.60;;;;;;4934389;29;20108;-93
2021/09/07 07:36:33;;;;;;;6.47;3.78;;;23.40;99.80;;;;;;4934563;29;20024;-93
2021/09/07 07:39:00;;;;;;;7.80;4.70;;;23.50;99.60;;;;;;4934094;29;20016;-93
2021/09/07 07:41:26;;;;;;;6.18;4.03;;;23.60;99.40;;;;;;4932766;29;20036;-92
2021/09/07 07:43:52;;;;;;;7.05;4.43;;;23.60;99.40;;;;;;4933629;29;20019;-92
2021/09/07 07:46:18;;;;;;;10.07;4.57;;;23.70;99.40;;;;;;4934108;29;20055;-93
2021/09/07 07:48:44;;;;;;;6.18;4.30;;;23.60;99.50;;;;;;4932516;29;20031;-92
2021/09/07 07:51:11;;;;;;;4.97;4.00;;;23.70;99.50;;;;;;4932464;29;20034;-92
2021/09/07 07:53:37;;;;;;;6.72;4.35;;;23.70;99.40;;;;;;4933793;29;20035;-92
2021/09/07 07:56:04;;;;;;;7.30;4.13;;;23.70;99.70;;;;;;4932162;29;20035;-92
2021/09/07 07:58:30;;;;;;;5.43;4.00;;;23.80;99.50;;;;;;4945474;28;20032;-93
2021/09/07 08:00:56;;;;;;;7.22;4.47;;;23.90;99.60;;;;;;4932555;29;20031;-92
2021/09/07 08:03:21;;;;;;;4.82;4.03;;;24.00;99.40;;;;;;4933701;29;20066;-93
2021/09/07 08:05:47;;;;;;;5.35;4.20;;;24.10;99.30;;;;;;4932082;29;20401;-93
2021/09/07 08:08:13;;;;;;;9.60;4.45;;;24.20;99.10;;;;;;4933584;29;20090;-93
2021/09/07 08:10:39;;;;;;;9.50;4.47;;;24.20;99.10;;;;;;4948166;28;20090;-92
2021/09/07 08:13:06;;;;;;;6.60;4.35;;;24.30;99.00;;;;;;4932309;29;20018;-92
2021/09/07 08:15:31;;;;;;;10.27;4.65;;;24.30;99.30;;;;;;4933255;29;20032;-93
2021/09/07 08:17:57;;;;;;;6.38;4.47;;;24.40;99.30;;;;;;4931909;29;20034;-93
2021/09/07 08:20:23;;;;;;;8.73;4.60;;;24.50;99.20;;;;;;4944889;28;20054;-92
2021/09/07 08:22:51;;;;;;;8.02;4.43;;;24.60;99.20;;;;;;4929295;29;20020;-93
2021/09/07 08:25:17;;;;;;;6.57;4.50;;;24.60;99.00;;;;;;4932502;29;20035;-94
2021/09/07 08:27:43;;;;;;;6.45;4.72;;;24.80;99.20;;;;;;4932027;29;20035;-93
2021/09/07 08:30:09;;;;;;;5.32;4.30;;;24.90;99.20;;;;;;4932026;29;20082;-94
2021/09/07 08:32:39;;;;;;;8.40;4.30;;;24.90;98.90;;;;;;4933248;29;20059;-93
2021/09/07 08:35:05;;;;;;;5.28;4.43;;;24.90;99.10;;;;;;4932955;29;20047;-92
2021/09/07 08:37:31;;;;;;;8.75;4.80;;;25.00;99.00;;;;;;4933099;29;20031;-93
2021/09/07 08:39:57;;;;;;;5.63;4.70;;;25.00;99.10;;;;;;4931807;29;20026;-93
2021/09/07 08:42:23;;;;;;;8.85;4.82;;;25.10;99.20;;;;;;4933207;29;20500;-92
2021/09/07 08:44:48;;;;;;;6.30;4.40;;;25.20;99.30;;;;;;4931987;29;20390;-92
2021/09/07 08:47:18;;;;;;;6.70;4.25;;;25.30;99.20;;;;;;4944272;28;20071;-93
2021/09/07 08:49:46;;;;;;;5.15;4.20;;;25.30;99.10;;;;;;4924375;29;20199;-92
2021/09/07 08:52:14;;;;;;;8.07;4.82;;;25.50;99.20;;;;;;4931439;29;20032;-92
2021/09/07 08:54:42;;;;;;;8.77;5.15;;;25.60;98.90;;;;;;4928498;29;20027;-92
2021/09/07 08:57:08;;;;;;;9.18;4.60;;;25.70;98.60;;;;;;4928504;29;20503;-94
2021/09/07 08:59:35;;;;;;;10.13;4.32;;;25.80;98.60;;;;;;4933224;29;20024;-93
2021/09/07 09:02:20;;;;;;;9.35;4.78;;;25.90;98.60;;;;;;4928649;29;20044;-92
2021/09/07 09:04:50;;;;;;;6.57;5.32;;;26.00;98.50;;;;;;4944431;29;20398;-93
2021/09/07 09:07:28;;;;;;;12.63;5.05;;;26.10;98.30;;;;;;4926802;29;20078;-92
2021/09/07 09:09:56;;;;;;;8.32;4.90;;;26.20;98.10;;;;;;4931595;29;20027;-93
2021/09/07 09:12:48;;;;;;;9.60;4.95;;;26.30;97.80;;;;;;4947315;28;20028;-92
2021/09/07 09:15:20;;;;;;;7.95;4.50;;;26.40;97.60;;;;;;4932377;29;20071;-93
2021/09/07 09:17:47;;;;;;;9.75;4.93;;;26.50;97.60;;;;;;4931441;29;20028;-91
2021/09/07 09:20:15;;;;;;;11.27;4.30;;;26.60;97.40;;;;;;4932879;29;20047;-93
2021/09/07 09:22:51;;;;;;;7.05;4.70;;;26.70;96.90;;;;;;4931783;29;20400;-93
2021/09/07 09:25:20;;;;;;;8.02;4.75;;;26.80;96.70;;;;;;4931355;29;20099;-92
2021/09/07 09:27:55;;;;;;;4.90;4.13;;;26.90;96.50;;;;;;4945754;28;20028;-93
2021/09/07 09:30:51;;;;;;;5.63;4.35;;;27.00;96.50;;;;;;4931368;29;20023;-92
2021/09/07 09:33:21;;;;;;;8.82;4.80;;;27.10;96.00;;;;;;4927511;29;20111;-93
2021/09/07 09:35:50;;;;;;;6.57;4.68;;;27.30;96.00;;;;;;4932806;29;20028;-94
2021/09/07 09:38:17;;;;;;;11.05;4.40;;;27.40;95.70;;;;;;4934586;29;20047;-93
2021/09/07 09:40:44;;;;;;;8.30;4.47;;;27.50;95.20;;;;;;4936330;29;20019;-92
2021/09/07 09:43:32;;;;;;;7.93;3.92;;;27.60;94.90;;;;;;4936253;29;20015;-92
2021/09/07 09:46:18;;;;;;;8.40;4.47;;;27.70;94.90;;;;;;4923060;29;20044;-92
2021/09/07 09:48:44;;;;;;;10.75;4.55;;;27.80;94.40;;;;;;4949960;28;20080;-93
2021/09/07 09:51:14;;;;;;;12.45;4.40;;;27.80;94.20;;;;;;4934808;29;20035;-93
2021/09/07 09:53:43;;;;;;;7.32;4.25;;;27.90;94.00;;;;;;4935806;29;20043;-93
2021/09/07 09:56:09;;;;;;;11.90;4.40;;;27.80;94.00;;;;;;4934641;29;20107;-94
2021/09/07 09:58:35;;;;;;;7.40;4.45;;;27.80;93.80;;;;;;4947414;28;20029;-94
2021/09/07 10:01:02;;;;;;;10.15;5.05;;;27.90;93.70;;;;;;4934131;29;20020;-93
2021/09/07 10:03:28;;;;;;;7.53;4.45;;;27.90;94.00;;;;;;4935625;29;20309;-94
2021/09/07 10:05:54;;;;;;;7.68;4.25;;;28.10;93.60;;;;;;4935570;29;20267;-93
2021/09/07 10:08:20;;;;;;;7.03;4.35;;;28.20;93.40;;;;;;4931139;29;20024;-94
2021/09/07 10:11:03;;;;;;;6.40;4.32;;;28.40;93.20;;;;;;4944971;28;20059;-93
2021/09/07 10:13:32;;;;;;;5.13;4.18;;;28.40;92.70;;;;;;4936174;29;20488;-93
2021/09/07 10:16:01;;;;;;;7.68;3.83;;;28.50;92.60;;;;;;4935552;29;20054;-93
2021/09/07 10:26:40;;;;;;;7.25;4.35;;;28.80;91.60;;;;;;4934163;29;20043;-92
2021/09/07 10:29:10;;;;;;;14.05;8.77;;;28.90;91.20;;;;;;4947591;28;20035;-93
2021/09/07 10:31:53;;;;;;;39.67;20.40;;;29.10;90.90;;;;;;4934111;29;20051;-94
2021/09/07 10:34:23;;;;;;;14.50;9.03;;;29.30;90.70;;;;;;4936428;29;20020;-94
2021/09/07 10:37:04;;;;;;;15.55;8.63;;;29.50;89.70;;;;;;4935113;29;20019;-92
2021/09/07 10:39:36;;;;;;;15.80;7.93;;;29.60;89.00;;;;;;4936683;29;20028;-92
2021/09/07 10:42:09;;;;;;;9.25;6.13;;;29.70;88.80;;;;;;4936313;29;20016;-91
2021/09/07 10:44:40;;;;;;;15.07;5.85;;;29.70;87.80;;;;;;4934245;29;20042;-92
2021/09/07 10:47:16;;;;;;;7.43;5.10;;;29.70;87.50;;;;;;4935355;29;20044;-93
2021/09/07 10:49:48;;;;;;;11.52;5.18;;;29.90;87.80;;;;;;4933443;29;20031;-93
2021/09/07 10:52:13;;;;;;;10.55;5.68;;;29.90;87.30;;;;;;4935316;29;20082;-93
2021/09/07 10:54:50;;;;;;;10.50;5.72;;;30.10;86.00;;;;;;4935282;29;20031;-93
2021/09/07 10:57:38;;;;;;;9.50;4.55;;;30.20;85.20;;;;;;4933562;29;20045;-93
2021/09/07 11:00:22;;;;;;;7.75;4.32;;;30.30;84.50;;;;;;4944764;28;20059;-93
2021/09/07 11:02:55;;;;;;;6.45;3.70;;;30.40;83.50;;;;;;4932048;29;20523;-93
2021/09/07 11:05:28;;;;;;;8.65;4.28;;;30.60;83.20;;;;;;4934710;29;20537;-94
2021/09/07 11:08:10;;;;;;;6.63;4.05;;;30.80;81.90;;;;;;4933601;29;20032;-93
2021/09/07 11:10:54;;;;;;;6.10;4.22;;;31.00;81.50;;;;;;4930246;29;20020;-93
2021/09/07 11:13:28;;;;;;;7.30;4.07;;;31.00;80.80;;;;;;4924553;29;20028;-91
2021/09/07 11:15:56;;;;;;;8.50;4.18;;;31.00;80.30;;;;;;4920411;29;20028;-92
2021/09/07 11:18:26;;;;;;;8.00;4.20;;;31.00;79.90;;;;;;4931136;29;20027;-91
2021/09/07 11:20:54;;;;;;;4.43;3.85;;;31.00;79.10;;;;;;4933789;29;20036;-92
2021/09/07 11:23:22;;;;;;;7.97;4.50;;;31.00;78.90;;;;;;4934063;29;20054;-92
2021/09/07 11:25:57;;;;;;;7.05;3.92;;;31.10;78.40;;;;;;4933354;29;20040;-91
2021/09/07 11:28:24;;;;;;;8.30;3.53;;;31.20;77.70;;;;;;4921657;29;20028;-91
2021/09/07 11:30:51;;;;;;;5.40;3.97;;;31.40;77.80;;;;;;4933492;29;20020;-90
2021/09/07 11:33:22;;;;;;;5.85;3.20;;;31.50;76.80;;;;;;4928987;29;20135;-91
2021/09/07 11:35:48;;;;;;;6.18;3.60;;;31.60;76.50;;;;;;4945414;28;20362;-92
2021/09/07 11:38:16;;;;;;;5.43;3.40;;;31.80;75.90;;;;;;4930724;29;20078;-91
2021/09/07 11:40:53;;;;;;;6.75;3.63;;;32.00;75.10;;;;;;4933353;29;20388;-91
2021/09/07 11:43:33;;;;;;;6.18;3.53;;;32.20;73.50;;;;;;4932176;29;20349;-91
2021/09/07 11:46:17;;;;;;;8.40;3.72;;;32.20;73.70;;;;;;4944595;28;20070;-91
2021/09/07 11:48:48;;;;;;;6.28;3.55;;;32.20;73.10;;;;;;4931508;29;20039;-91
2021/09/07 11:51:19;;;;;;;6.03;3.15;;;32.10;73.20;;;;;;4932430;29;20027;-91
2021/09/07 11:53:51;;;;;;;6.55;3.30;;;32.10;73.00;;;;;;4928716;29;20071;-91
2021/09/07 11:56:22;;;;;;;7.90;3.33;;;32.10;72.90;;;;;;4926734;29;20022;-90
2021/09/07 11:58:49;;;;;;;7.35;3.42;;;32.30;71.90;;;;;;4946204;29;20610;-91
2021/09/07 12:01:19;;;;;;;12.68;3.60;;;32.30;71.70;;;;;;4932798;29;20025;-87
2021/09/07 12:03:48;;;;;;;6.78;3.58;;;32.30;70.90;;;;;;4925809;29;20044;-84
2021/09/07 12:06:17;;;;;;;10.00;3.97;;;32.30;71.90;;;;;;4932772;29;20091;-84
2021/09/07 12:08:45;;;;;;;7.72;3.22;;;32.30;71.00;;;;;;4932772;29;20111;-84
2021/09/07 12:11:31;;;;;;;5.40;3.42;;;32.40;70.70;;;;;;4932727;29;20060;-84
2021/09/07 12:14:22;;;;;;;7.82;3.42;;;32.50;70.40;;;;;;4932075;29;20357;-85
2021/09/07 12:16:48;;;;;;;13.85;3.33;;;32.40;70.40;;;;;;4932433;29;20526;-84
2021/09/07 12:19:22;;;;;;;5.50;3.20;;;32.40;69.80;;;;;;4931787;29;20106;-84
2021/09/07 12:22:03;;;;;;;7.07;3.28;;;32.60;69.80;;;;;;4931003;29;20051;-84
2021/09/07 12:24:29;;;;;;;5.15;3.22;;;32.70;69.40;;;;;;4930507;29;20020;-85
2021/09/07 12:26:55;;;;;;;3.55;3.20;;;33.00;69.00;;;;;;4932422;29;20039;-84
2021/09/07 12:29:20;;;;;;;7.57;3.50;;;33.20;68.30;;;;;;4932053;29;20020;-84
2021/09/07 12:31:46;;;;;;;7.38;3.20;;;33.40;67.70;;;;;;4932310;29;20102;-84
2021/09/07 12:34:20;;;;;;;3.97;2.92;;;33.50;67.80;;;;;;4932552;29;20119;-85
2021/09/07 12:36:49;;;;;;;8.90;3.30;;;33.60;67.20;;;;;;4932565;29;20091;-84
2021/09/07 12:39:14;;;;;;;6.60;3.40;;;33.80;66.50;;;;;;4932457;29;20020;-84
2021/09/07 12:41:40;;;;;;;4.10;3.00;;;33.80;66.60;;;;;;4932535;29;20547;-85
2021/09/07 12:44:06;;;;;;;7.07;3.05;;;33.90;66.40;;;;;;4932261;29;20020;-86
2021/09/07 12:46:32;;;;;;;5.40;3.00;;;34.00;65.90;;;;;;4932932;29;20035;-91
2021/09/07 12:48:58;;;;;;;5.80;3.10;;;34.10;64.30;;;;;;4935026;29;20047;-92
2021/09/07 12:51:24;;;;;;;5.45;3.00;;;34.10;64.00;;;;;;4932705;29;20110;-92
2021/09/07 12:53:58;;;;;;;7.57;2.95;;;34.20;64.60;;;;;;4933878;29;20081;-92
2021/09/07 12:56:29;;;;;;;5.60;2.90;;;34.30;64.40;;;;;;4932541;29;20576;-92